createdAt,value
2022-08-22T00:03:09.769Z,99603.72
2022-08-22T00:03:15.676Z,99606.63
2022-08-22T00:07:35.928Z,99602.16
2022-08-22T00:11:57.509Z,99598.88
2022-08-22T00:16:20.331Z,99604.25
2022-08-22T00:20:35.901Z,99607.19
2022-08-22T00:25:26.030Z,99608.75
2022-08-22T00:29:39.985Z,99593.75
2022-08-22T00:33:46.850Z,99591.41
2022-08-22T00:38:02.864Z,99592.94
2022-08-22T00:42:31.365Z,99588.41
2022-08-22T00:46:33.495Z,99591.13
2022-08-22T00:50:53.974Z,99588.13
2022-08-22T00:55:13.240Z,99590.69
2022-08-22T00:59:33.388Z,99599.19
2022-08-22T01:03:50.145Z,99603.22
2022-08-22T01:13:41.656Z,99595.41
2022-08-22T01:18:35.125Z,99592.91
2022-08-22T01:23:26.892Z,99583.69
2022-08-22T01:28:34.283Z,99577.06
2022-08-22T01:33:34.962Z,99577.59
2022-08-22T01:38:30.917Z,99569.66
2022-08-22T01:43:05.559Z,99572.03
2022-08-22T01:51:51.046Z,99560.59
2022-08-22T01:56:11.314Z,99556.16
2022-08-22T02:00:35.450Z,99568.56
2022-08-22T02:04:42.916Z,99567.97
2022-08-22T02:09:01.441Z,99574.06
2022-08-22T02:13:13.051Z,99571.56
2022-08-22T02:17:35.144Z,99568.38
2022-08-22T02:21:53.520Z,99572.63
2022-08-22T02:26:07.506Z,99564.78
2022-08-22T02:30:14.891Z,99571.47
2022-08-22T02:39:13.051Z,99567.75
2022-08-22T02:48:57.593Z,99563.59
2022-08-22T02:53:37.065Z,99566.59
2022-08-22T02:57:47.736Z,99561.53
2022-08-22T03:01:53.950Z,99560.91
2022-08-22T03:06:40.119Z,99556.16
2022-08-22T03:11:12.229Z,99550.91
2022-08-22T03:15:51.066Z,99554.72
2022-08-22T03:19:56.971Z,99552.44
2022-08-22T03:24:55.446Z,99551.38
2022-08-22T04:16:41.666Z,99581.75
2022-08-22T06:57:52.346Z,99632.44
2022-08-22T07:18:53.681Z,99647.44
2022-08-22T07:29:01.210Z,99654.06
2022-08-22T07:33:58.038Z,99650.78
2022-08-22T07:38:21.447Z,99655.84
2022-08-22T07:42:55.538Z,99659.88
2022-08-22T07:47:41.975Z,99668.47
2022-08-22T07:53:02.095Z,99662.63
2022-08-22T07:57:12.562Z,99665.34
2022-08-22T08:05:41.392Z,99656.56
2022-08-22T08:09:49.634Z,99659.78
2022-08-22T08:14:07.382Z,99655.16
2022-08-22T08:18:19.919Z,99656.44
2022-08-22T08:22:27.209Z,99659.97
2022-08-22T08:26:38.767Z,99649.44
2022-08-22T08:30:47.313Z,99659.31
2022-08-22T08:39:14.777Z,99659.56
2022-08-22T08:43:48.697Z,99656.97
2022-08-22T08:47:50.403Z,99653.94
2022-08-22T08:52:28.897Z,99651.94
2022-08-22T08:57:01.392Z,99653.69
2022-08-22T09:01:29.725Z,99645.63
2022-08-22T09:05:44.475Z,99642.97
2022-08-22T09:10:27.420Z,99634.94
2022-08-22T09:15:11.892Z,99644.47
2022-08-22T09:19:56.419Z,99643.97
2022-08-22T09:24:23.301Z,99637.09
2022-08-22T09:28:38.823Z,99642.28
2022-08-22T09:32:46.418Z,99640.25
2022-08-22T09:37:16.998Z,99635.81
2022-08-22T09:41:34.059Z,99638.59
2022-08-22T09:45:50.265Z,99630.59
2022-08-22T09:49:58.612Z,99615.19
2022-08-22T09:54:15.367Z,99612.63
2022-08-22T09:58:40.290Z,99613.59
2022-08-22T10:02:54.367Z,99612.09
2022-08-22T10:07:15.435Z,99606.78
2022-08-22T10:11:27.302Z,99597.66
2022-08-22T10:15:45.901Z,99595.47
2022-08-22T10:19:54.103Z,99585.66
2022-08-22T10:24:44.050Z,99582.78
2022-08-22T10:28:53.378Z,99593.50
2022-08-22T10:33:05.289Z,99588.25
2022-08-22T10:37:23.846Z,99582.28
2022-08-22T10:41:36.229Z,99575.88
2022-08-22T10:45:40.172Z,99572.94
2022-08-22T10:49:51.412Z,99580.44
2022-08-22T10:53:55.904Z,99572.69
2022-08-22T10:58:09.911Z,99578.97
2022-08-22T11:02:42.380Z,99570.88
2022-08-22T11:07:23.168Z,99562.16
2022-08-22T11:11:35.917Z,99563.34
2022-08-22T11:16:07.012Z,99554.69
2022-08-22T11:20:19.829Z,99560.88
2022-08-22T11:24:46.522Z,99560.53
2022-08-22T11:29:19.432Z,99546.69
2022-08-22T11:34:01.172Z,99550.00
2022-08-22T11:38:13.444Z,99546.72
2022-08-22T11:42:24.583Z,99552.03
2022-08-22T11:46:35.955Z,99552.84
2022-08-22T11:50:48.676Z,99536.53
2022-08-22T11:54:53.284Z,99533.28
2022-08-22T11:59:05.017Z,99536.88
2022-08-22T12:03:09.636Z,99528.28
2022-08-22T12:07:20.850Z,99525.09
2022-08-22T12:11:44.721Z,99520.41
2022-08-22T12:16:06.079Z,99515.28
2022-08-22T12:20:38.009Z,99517.91
2022-08-22T12:25:07.848Z,99504.91
2022-08-22T12:29:39.875Z,99514.88
2022-08-22T12:33:56.288Z,99504.22
2022-08-22T12:38:00.721Z,99495.75
2022-08-22T12:42:36.517Z,99501.38
2022-08-22T12:47:02.483Z,99496.41
2022-08-22T12:51:32.366Z,99492.09
2022-08-22T12:55:59.423Z,99488.72
2022-08-22T13:00:32.086Z,99478.66
2022-08-22T13:04:34.427Z,99479.28
2022-08-22T13:08:41.707Z,99484.56
2022-08-22T13:12:51.732Z,99471.66
2022-08-22T13:17:00.870Z,99457.84
2022-08-22T13:21:22.479Z,99467.84
2022-08-22T13:25:27.138Z,99461.78
2022-08-22T13:29:52.157Z,99467.44
2022-08-22T13:34:00.792Z,99463.72
2022-08-22T13:38:25.742Z,99463.63
2022-08-22T13:42:32.332Z,99454.69
2022-08-22T13:46:44.375Z,99454.22
2022-08-22T13:51:09.849Z,99451.63
2022-08-22T13:55:20.060Z,99465.50
2022-08-22T13:59:51.034Z,99453.75
2022-08-22T14:04:28.403Z,99450.69
2022-08-22T14:08:45.979Z,99440.84
2022-08-22T14:12:56.963Z,99447.97
2022-08-22T14:17:00.444Z,99445.94
2022-08-22T14:21:33.453Z,99434.03
2022-08-22T14:25:43.713Z,99436.84
2022-08-22T14:29:53.092Z,99438.09
2022-08-22T14:34:02.632Z,99432.44
2022-08-22T14:38:20.051Z,99436.25
2022-08-22T14:42:26.562Z,99426.09
2022-08-22T14:46:43.544Z,99421.59
2022-08-22T14:50:55.686Z,99418.31
2022-08-22T14:55:27.112Z,99412.50
2022-08-22T14:59:44.287Z,99409.47
2022-08-22T15:03:54.107Z,99408.50
2022-08-22T15:07:59.565Z,99413.59
2022-08-22T15:12:04.072Z,99408.97
2022-08-22T15:16:18.108Z,99415.38
2022-08-22T15:20:38.239Z,99410.94
2022-08-22T15:25:01.124Z,99410.47
2022-08-22T15:29:25.449Z,99403.94
2022-08-22T15:33:33.757Z,99399.69
2022-08-22T15:37:57.736Z,99405.34
2022-08-22T15:42:01.352Z,99399.41
2022-08-22T15:46:18.580Z,99391.03
2022-08-22T15:51:04.629Z,99393.66
2022-08-22T15:55:24.320Z,99385.66
2022-08-22T15:59:48.192Z,99374.28
2022-08-22T16:04:02.386Z,99393.91
2022-08-22T16:08:08.330Z,99390.78
2022-08-22T16:12:31.778Z,99383.84
2022-08-22T16:16:45.588Z,99382.66
2022-08-22T16:20:53.168Z,99386.94
2022-08-22T16:24:57.990Z,99378.75
2022-08-22T16:28:59.559Z,99379.06
2022-08-22T16:33:02.229Z,99379.78
2022-08-22T16:37:03.791Z,99379.75
2022-08-22T16:41:05.834Z,99379.25
2022-08-22T16:45:16.230Z,99368.22
2022-08-22T16:49:30.813Z,99368.09
2022-08-22T16:53:35.280Z,99368.75
2022-08-22T16:58:05.980Z,99370.63
2022-08-22T17:02:23.683Z,99374.63
2022-08-22T17:06:45.501Z,99384.66
2022-08-22T17:11:08.185Z,99387.38
2022-08-22T17:15:48.753Z,99388.66
2022-08-22T17:20:16.531Z,99388.19
2022-08-22T17:24:45.020Z,99389.38
2022-08-22T17:29:15.254Z,99400.91
2022-08-22T17:33:27.869Z,99392.41
2022-08-22T17:38:02.458Z,99406.53
2022-08-22T17:42:28.462Z,99409.00
2022-08-22T17:46:40.831Z,99395.59
2022-08-22T17:50:55.133Z,99402.66
2022-08-22T17:54:59.775Z,99414.06
2022-08-22T17:59:23.778Z,99407.22
2022-08-22T18:03:35.901Z,99407.03
2022-08-22T18:08:01.738Z,99403.78
2022-08-22T18:12:17.287Z,99407.72
2022-08-22T18:16:49.584Z,99407.38
2022-08-22T18:21:07.315Z,99416.63
2022-08-22T18:25:33.640Z,99420.72
2022-08-22T18:30:17.976Z,99416.25
2022-08-22T18:34:42.397Z,99418.31
2022-08-22T18:39:05.736Z,99422.81
2022-08-22T18:43:17.943Z,99422.56
2022-08-22T18:47:27.432Z,99426.78
2022-08-22T18:51:38.815Z,99434.13
2022-08-22T18:55:54.971Z,99438.81
2022-08-22T19:00:02.625Z,99442.09
2022-08-22T19:04:44.588Z,99439.59
2022-08-22T19:09:07.727Z,99447.59
2022-08-22T19:13:46.495Z,99452.00
2022-08-22T19:18:06.796Z,99450.44
2022-08-22T19:22:20.629Z,99456.13
2022-08-22T19:26:34.860Z,99457.06
2022-08-22T19:31:37.241Z,99457.13
2022-08-22T19:35:41.903Z,99458.69
2022-08-22T19:39:43.520Z,99465.66
2022-08-22T19:43:47.556Z,99462.25
2022-08-22T19:48:10.557Z,99465.56
2022-08-22T19:52:30.037Z,99458.97
2022-08-22T19:56:40.338Z,99471.22
2022-08-22T20:01:10.261Z,99467.78
2022-08-22T20:05:33.924Z,99461.69
2022-08-22T20:09:56.946Z,99474.56
2022-08-22T20:14:17.332Z,99467.97
2022-08-22T20:19:05.158Z,99459.56
2022-08-22T20:23:10.675Z,99464.69
2022-08-22T20:27:17.888Z,99458.38
2022-08-22T20:31:25.657Z,99466.34
2022-08-22T20:35:42.945Z,99461.72
2022-08-22T20:40:57.364Z,99464.06
2022-08-22T20:45:12.497Z,99465.75
2022-08-22T20:49:21.281Z,99468.22
2022-08-22T20:53:22.998Z,99461.63
2022-08-22T20:57:24.803Z,99468.75
2022-08-22T21:01:28.670Z,99466.06
2022-08-22T21:05:38.784Z,99462.44
2022-08-22T21:09:59.221Z,99468.22
2022-08-22T21:14:21.680Z,99464.75
2022-08-22T21:18:32.915Z,99469.53
2022-08-22T21:22:34.787Z,99476.94
2022-08-22T21:26:45.438Z,99474.56
2022-08-22T21:30:47.395Z,99476.91
2022-08-22T21:34:49.760Z,99471.91
2022-08-22T21:38:56.159Z,99476.50
2022-08-22T21:43:04.738Z,99479.25
2022-08-22T21:47:30.833Z,99477.63
2022-08-22T21:51:44.239Z,99480.75
2022-08-22T21:55:49.454Z,99474.31
2022-08-22T21:59:59.599Z,99481.78
2022-08-22T22:04:01.953Z,99474.22
2022-08-22T22:08:04.445Z,99480.16
2022-08-22T22:12:06.211Z,99485.31
2022-08-22T22:16:09.251Z,99490.25
2022-08-22T22:20:13.490Z,99494.22
2022-08-22T22:24:15.495Z,99503.44
2022-08-22T22:28:44.575Z,99515.16
2022-08-22T22:32:47.737Z,99516.63
2022-08-22T22:36:49.761Z,99510.75
2022-08-22T22:40:52.407Z,99502.19
2022-08-22T22:44:53.994Z,99503.69
2022-08-22T22:48:57.253Z,99506.47
2022-08-22T22:52:59.443Z,99511.13
2022-08-22T22:57:01.074Z,99523.88
2022-08-22T23:01:18.716Z,99533.59
2022-08-22T23:05:20.912Z,99535.25
2022-08-22T23:09:37.944Z,99539.72
2022-08-22T23:13:42.811Z,99546.22
2022-08-22T23:17:45.488Z,99554.34
2022-08-22T23:21:48.902Z,99565.91
2022-08-22T23:25:52.462Z,99568.25
2022-08-22T23:29:54.003Z,99570.09
2022-08-22T23:33:58.396Z,99571.25
2022-08-22T23:38:01.238Z,99572.41
2022-08-22T23:42:08.069Z,99578.00
2022-08-22T23:46:11.097Z,99574.69
2022-08-22T23:50:18.222Z,99573.81
2022-08-22T23:54:22.758Z,99581.06
2022-08-22T23:58:27.399Z,99576.28
